sensor_id;sensor_type;location;lat;lon;timestamp;pressure;altitude;pressure_sealevel;temperature;humidity
43480;BME280;29067;35.492;-97.520;2023-12-07T00:01:12;97813.99;;;11.65;31.08
43480;BME280;29067;35.492;-97.520;2023-12-07T00:03:40;97806.57;;;13.49;29.97
43480;BME280;29067;35.492;-97.520;2023-12-07T00:06:08;97810.88;;;11.03;31.01
43480;BME280;29067;35.492;-97.520;2023-12-07T00:08:35;97807.17;;;12.00;30.77
43480;BME280;29067;35.492;-97.520;2023-12-07T00:11:03;97804.76;;;11.73;31.13
43480;BME280;29067;35.492;-97.520;2023-12-07T00:13:31;97810.78;;;12.23;30.85
43480;BME280;29067;35.492;-97.520;2023-12-07T00:15:59;97807.84;;;12.10;31.07
43480;BME280;29067;35.492;-97.520;2023-12-07T00:18:26;97805.85;;;11.83;31.10
43480;BME280;29067;35.492;-97.520;2023-12-07T00:20:54;97804.96;;;11.18;31.63
43480;BME280;29067;35.492;-97.520;2023-12-07T00:23:22;97809.64;;;11.15;32.12
43480;BME280;29067;35.492;-97.520;2023-12-07T00:25:50;97807.60;;;10.78;31.79
43480;BME280;29067;35.492;-97.520;2023-12-07T00:28:17;97796.69;;;11.38;31.66
43480;BME280;29067;35.492;-97.520;2023-12-07T00:30:45;97797.55;;;11.48;32.04
43480;BME280;29067;35.492;-97.520;2023-12-07T00:33:13;97796.95;;;11.13;32.35
43480;BME280;29067;35.492;-97.520;2023-12-07T00:35:41;97789.65;;;12.60;31.56
43480;BME280;29067;35.492;-97.520;2023-12-07T00:38:09;97791.32;;;10.29;32.37
43480;BME280;29067;35.492;-97.520;2023-12-07T00:40:37;97787.72;;;12.22;31.75
43480;BME280;29067;35.492;-97.520;2023-12-07T00:43:05;97787.71;;;11.11;32.61
43480;BME280;29067;35.492;-97.520;2023-12-07T00:45:33;97790.52;;;10.69;32.51
43480;BME280;29067;35.492;-97.520;2023-12-07T00:48:01;97790.41;;;10.95;32.56
43480;BME280;29067;35.492;-97.520;2023-12-07T00:50:30;97788.37;;;11.95;32.01
43480;BME280;29067;35.492;-97.520;2023-12-07T00:52:59;97787.23;;;11.12;32.58
43480;BME280;29067;35.492;-97.520;2023-12-07T00:55:28;97788.67;;;11.32;32.69
43480;BME280;29067;35.492;-97.520;2023-12-07T00:57:58;97784.36;;;11.69;32.55
43480;BME280;29067;35.492;-97.520;2023-12-07T01:00:26;97780.00;;;11.28;32.59
43480;BME280;29067;35.492;-97.520;2023-12-07T01:02:56;97781.85;;;11.14;32.49
43480;BME280;29067;35.492;-97.520;2023-12-07T01:05:26;97782.23;;;11.21;32.69
43480;BME280;29067;35.492;-97.520;2023-12-07T01:07:55;97777.73;;;9.76;33.39
43480;BME280;29067;35.492;-97.520;2023-12-07T01:10:25;97773.57;;;11.47;32.25
43480;BME280;29067;35.492;-97.520;2023-12-07T01:12:55;97776.18;;;10.67;32.73
43480;BME280;29067;35.492;-97.520;2023-12-07T01:15:24;97770.55;;;10.95;33.04
43480;BME280;29067;35.492;-97.520;2023-12-07T01:17:56;97769.92;;;10.83;32.21
43480;BME280;29067;35.492;-97.520;2023-12-07T01:20:26;97771.65;;;9.04;33.68
43480;BME280;29067;35.492;-97.520;2023-12-07T01:22:56;97768.01;;;10.21;33.05
43480;BME280;29067;35.492;-97.520;2023-12-07T01:25:25;97770.89;;;11.26;31.91
43480;BME280;29067;35.492;-97.520;2023-12-07T01:27:56;97769.20;;;9.62;33.17
43480;BME280;29067;35.492;-97.520;2023-12-07T01:30:24;97765.78;;;10.29;32.29
43480;BME280;29067;35.492;-97.520;2023-12-07T01:32:53;97764.86;;;10.35;31.96
43480;BME280;29067;35.492;-97.520;2023-12-07T01:35:21;97761.00;;;11.31;31.77
43480;BME280;29067;35.492;-97.520;2023-12-07T01:37:50;97760.85;;;9.89;32.70
43480;BME280;29067;35.492;-97.520;2023-12-07T01:40:19;97761.90;;;8.68;33.15
43480;BME280;29067;35.492;-97.520;2023-12-07T01:42:51;97755.32;;;10.79;32.52
43480;BME280;29067;35.492;-97.520;2023-12-07T01:45:20;97762.20;;;9.47;32.81
43480;BME280;29067;35.492;-97.520;2023-12-07T01:47:50;97762.20;;;8.95;33.87
43480;BME280;29067;35.492;-97.520;2023-12-07T01:50:20;97752.64;;;9.11;33.36
43480;BME280;29067;35.492;-97.520;2023-12-07T01:52:54;97756.98;;;8.58;33.67
43480;BME280;29067;35.492;-97.520;2023-12-07T01:55:24;97754.45;;;9.43;33.46
43480;BME280;29067;35.492;-97.520;2023-12-07T01:57:55;97748.71;;;9.08;33.53
43480;BME280;29067;35.492;-97.520;2023-12-07T02:00:25;97749.64;;;9.16;33.22
43480;BME280;29067;35.492;-97.520;2023-12-07T02:02:53;97746.42;;;9.11;33.80
43480;BME280;29067;35.492;-97.520;2023-12-07T02:05:22;97735.40;;;9.44;33.55
43480;BME280;29067;35.492;-97.520;2023-12-07T02:07:50;97728.44;;;8.77;34.53
43480;BME280;29067;35.492;-97.520;2023-12-07T02:10:18;97735.72;;;8.44;34.58
43480;BME280;29067;35.492;-97.520;2023-12-07T02:12:46;97732.80;;;8.66;34.65
43480;BME280;29067;35.492;-97.520;2023-12-07T02:15:15;97725.32;;;8.79;34.87
43480;BME280;29067;35.492;-97.520;2023-12-07T02:17:49;97721.30;;;8.38;35.35
43480;BME280;29067;35.492;-97.520;2023-12-07T02:20:26;97726.46;;;7.62;35.93
43480;BME280;29067;35.492;-97.520;2023-12-07T02:23:00;97725.19;;;8.76;35.31
43480;BME280;29067;35.492;-97.520;2023-12-07T02:25:35;97713.92;;;8.31;35.54
43480;BME280;29067;35.492;-97.520;2023-12-07T02:28:04;97711.71;;;8.43;35.75
43480;BME280;29067;35.492;-97.520;2023-12-07T02:30:31;97705.92;;;7.22;36.58
43480;BME280;29067;35.492;-97.520;2023-12-07T02:32:59;97706.74;;;8.38;35.95
43480;BME280;29067;35.492;-97.520;2023-12-07T02:35:28;97702.24;;;8.23;35.99
43480;BME280;29067;35.492;-97.520;2023-12-07T02:37:57;97704.27;;;7.78;36.38
43480;BME280;29067;35.492;-97.520;2023-12-07T02:40:27;97701.35;;;8.21;35.73
43480;BME280;29067;35.492;-97.520;2023-12-07T02:42:56;97695.16;;;8.10;36.36
43480;BME280;29067;35.492;-97.520;2023-12-07T02:45:26;97706.17;;;8.57;35.85
43480;BME280;29067;35.492;-97.520;2023-12-07T02:47:54;97695.30;;;8.73;35.74
43480;BME280;29067;35.492;-97.520;2023-12-07T02:50:23;97693.17;;;8.16;35.10
43480;BME280;29067;35.492;-97.520;2023-12-07T02:52:53;97689.11;;;7.84;35.59
43480;BME280;29067;35.492;-97.520;2023-12-07T02:55:22;97691.44;;;7.63;35.68
43480;BME280;29067;35.492;-97.520;2023-12-07T02:57:50;97684.19;;;8.78;35.28
43480;BME280;29067;35.492;-97.520;2023-12-07T03:00:18;97688.92;;;7.44;36.62
43480;BME280;29067;35.492;-97.520;2023-12-07T03:02:46;97681.08;;;8.27;35.91
43480;BME280;29067;35.492;-97.520;2023-12-07T03:05:14;97680.50;;;7.46;36.50
43480;BME280;29067;35.492;-97.520;2023-12-07T03:07:42;97680.45;;;8.11;36.07
43480;BME280;29067;35.492;-97.520;2023-12-07T03:10:10;97678.75;;;9.34;35.08
43480;BME280;29067;35.492;-97.520;2023-12-07T03:12:37;97674.78;;;7.40;36.49
43480;BME280;29067;35.492;-97.520;2023-12-07T03:15:06;97676.39;;;7.60;36.33
43480;BME280;29067;35.492;-97.520;2023-12-07T03:17:34;97681.12;;;7.46;36.41
43480;BME280;29067;35.492;-97.520;2023-12-07T03:20:02;97675.34;;;8.05;35.97
43480;BME280;29067;35.492;-97.520;2023-12-07T03:22:31;97674.93;;;8.22;35.85
43480;BME280;29067;35.492;-97.520;2023-12-07T03:25:00;97684.88;;;7.30;36.31
43480;BME280;29067;35.492;-97.520;2023-12-07T03:27:29;97678.32;;;5.93;37.17
43480;BME280;29067;35.492;-97.520;2023-12-07T03:29:57;97677.40;;;7.05;36.57
43480;BME280;29067;35.492;-97.520;2023-12-07T03:32:25;97667.70;;;6.68;36.92
43480;BME280;29067;35.492;-97.520;2023-12-07T03:34:53;97676.26;;;6.34;37.46
43480;BME280;29067;35.492;-97.520;2023-12-07T03:37:21;97673.04;;;6.05;37.63
43480;BME280;29067;35.492;-97.520;2023-12-07T03:39:49;97668.61;;;6.80;37.10
43480;BME280;29067;35.492;-97.520;2023-12-07T03:42:18;97661.32;;;7.14;37.25
43480;BME280;29067;35.492;-97.520;2023-12-07T03:44:46;97661.40;;;7.05;37.26
43480;BME280;29067;35.492;-97.520;2023-12-07T03:47:19;97656.87;;;7.38;37.10
43480;BME280;29067;35.492;-97.520;2023-12-07T03:49:47;97657.44;;;6.31;38.00
43480;BME280;29067;35.492;-97.520;2023-12-07T03:52:15;97655.70;;;6.37;38.09
43480;BME280;29067;35.492;-97.520;2023-12-07T03:54:43;97657.60;;;6.06;38.54
43480;BME280;29067;35.492;-97.520;2023-12-07T03:57:11;97648.32;;;6.45;38.59
43480;BME280;29067;35.492;-97.520;2023-12-07T03:59:39;97647.44;;;7.28;37.83
43480;BME280;29067;35.492;-97.520;2023-12-07T04:02:07;97645.98;;;6.98;38.15
43480;BME280;29067;35.492;-97.520;2023-12-07T04:04:35;97637.98;;;7.43;37.26
43480;BME280;29067;35.492;-97.520;2023-12-07T04:07:03;97636.59;;;7.06;37.50
43480;BME280;29067;35.492;-97.520;2023-12-07T04:09:31;97632.57;;;6.15;38.71
43480;BME280;29067;35.492;-97.520;2023-12-07T04:11:58;97630.55;;;5.88;39.12
43480;BME280;29067;35.492;-97.520;2023-12-07T04:14:27;97631.62;;;7.24;37.78
43480;BME280;29067;35.492;-97.520;2023-12-07T04:16:55;97625.74;;;7.10;38.08
43480;BME280;29067;35.492;-97.520;2023-12-07T04:19:22;97629.79;;;7.48;37.68
43480;BME280;29067;35.492;-97.520;2023-12-07T04:21:50;97632.41;;;6.92;37.97
43480;BME280;29067;35.492;-97.520;2023-12-07T04:24:18;97630.26;;;6.87;37.87
43480;BME280;29067;35.492;-97.520;2023-12-07T04:26:47;97630.65;;;6.85;38.61
43480;BME280;29067;35.492;-97.520;2023-12-07T04:29:15;97634.63;;;5.93;38.13
43480;BME280;29067;35.492;-97.520;2023-12-07T04:31:43;97630.08;;;6.58;38.13
43480;BME280;29067;35.492;-97.520;2023-12-07T04:34:11;97634.23;;;5.75;38.91
43480;BME280;29067;35.492;-97.520;2023-12-07T04:36:40;97629.78;;;6.09;38.70
43480;BME280;29067;35.492;-97.520;2023-12-07T04:39:08;97626.71;;;6.60;38.11
43480;BME280;29067;35.492;-97.520;2023-12-07T04:41:36;97627.69;;;6.75;38.26
43480;BME280;29067;35.492;-97.520;2023-12-07T04:44:05;97624.91;;;5.88;39.02
43480;BME280;29067;35.492;-97.520;2023-12-07T04:46:33;97634.78;;;6.26;38.69
43480;BME280;29067;35.492;-97.520;2023-12-07T04:49:01;97622.32;;;6.44;38.42
43480;BME280;29067;35.492;-97.520;2023-12-07T04:51:29;97623.94;;;4.83;40.08
43480;BME280;29067;35.492;-97.520;2023-12-07T04:53:57;97625.47;;;6.39;39.19
43480;BME280;29067;35.492;-97.520;2023-12-07T04:56:25;97615.17;;;6.64;38.38
43480;BME280;29067;35.492;-97.520;2023-12-07T04:58:53;97617.42;;;6.58;38.05
43480;BME280;29067;35.492;-97.520;2023-12-07T05:01:21;97621.48;;;6.98;38.10
43480;BME280;29067;35.492;-97.520;2023-12-07T05:03:48;97608.61;;;6.60;38.51
43480;BME280;29067;35.492;-97.520;2023-12-07T05:06:16;97609.90;;;6.79;38.42
43480;BME280;29067;35.492;-97.520;2023-12-07T05:08:44;97601.68;;;6.56;38.51
43480;BME280;29067;35.492;-97.520;2023-12-07T05:11:12;97596.60;;;6.91;38.33
43480;BME280;29067;35.492;-97.520;2023-12-07T05:13:40;97590.52;;;6.55;38.69
43480;BME280;29067;35.492;-97.520;2023-12-07T05:16:10;97592.93;;;5.43;39.82
43480;BME280;29067;35.492;-97.520;2023-12-07T05:18:38;97588.10;;;7.25;37.83
43480;BME280;29067;35.492;-97.520;2023-12-07T05:21:06;97586.20;;;6.46;38.81
43480;BME280;29067;35.492;-97.520;2023-12-07T05:23:35;97581.58;;;7.47;38.14
43480;BME280;29067;35.492;-97.520;2023-12-07T05:26:03;97580.86;;;6.63;38.65
43480;BME280;29067;35.492;-97.520;2023-12-07T05:28:30;97590.62;;;6.06;40.05
43480;BME280;29067;35.492;-97.520;2023-12-07T05:30:58;97579.60;;;6.46;38.99
43480;BME280;29067;35.492;-97.520;2023-12-07T05:33:26;97580.75;;;6.34;39.48
43480;BME280;29067;35.492;-97.520;2023-12-07T05:35:54;97580.13;;;6.35;39.73
43480;BME280;29067;35.492;-97.520;2023-12-07T05:38:22;97578.61;;;6.39;39.01
43480;BME280;29067;35.492;-97.520;2023-12-07T05:40:50;97577.78;;;6.82;39.27
43480;BME280;29067;35.492;-97.520;2023-12-07T05:43:18;97570.13;;;6.46;38.93
43480;BME280;29067;35.492;-97.520;2023-12-07T05:45:46;97571.55;;;5.90;39.69
43480;BME280;29067;35.492;-97.520;2023-12-07T05:48:13;97568.11;;;6.42;39.36
43480;BME280;29067;35.492;-97.520;2023-12-07T05:50:41;97572.46;;;5.52;40.21
43480;BME280;29067;35.492;-97.520;2023-12-07T05:53:09;97558.30;;;6.84;39.49
43480;BME280;29067;35.492;-97.520;2023-12-07T05:55:38;97556.95;;;6.75;39.06
43480;BME280;29067;35.492;-97.520;2023-12-07T05:58:07;97553.73;;;7.03;39.69
43480;BME280;29067;35.492;-97.520;2023-12-07T06:00:35;97549.67;;;7.01;39.39
43480;BME280;29067;35.492;-97.520;2023-12-07T06:03:02;97543.98;;;7.06;38.46
43480;BME280;29067;35.492;-97.520;2023-12-07T06:05:30;97547.00;;;6.82;39.12
43480;BME280;29067;35.492;-97.520;2023-12-07T06:07:58;97546.62;;;6.24;40.15
43480;BME280;29067;35.492;-97.520;2023-12-07T06:10:26;97534.99;;;6.97;39.18
43480;BME280;29067;35.492;-97.520;2023-12-07T06:12:54;97536.01;;;6.94;39.54
43480;BME280;29067;35.492;-97.520;2023-12-07T06:15:22;97538.03;;;5.93;40.33
43480;BME280;29067;35.492;-97.520;2023-12-07T06:17:50;97535.89;;;6.56;40.07
43480;BME280;29067;35.492;-97.520;2023-12-07T06:20:17;97535.09;;;6.14;40.57
43480;BME280;29067;35.492;-97.520;2023-12-07T06:22:45;97529.96;;;6.81;39.45
43480;BME280;29067;35.492;-97.520;2023-12-07T06:25:13;97526.89;;;6.19;40.09
43480;BME280;29067;35.492;-97.520;2023-12-07T06:27:41;97518.52;;;6.86;39.60
43480;BME280;29067;35.492;-97.520;2023-12-07T06:30:09;97517.06;;;7.40;39.19
43480;BME280;29067;35.492;-97.520;2023-12-07T06:32:38;97511.65;;;6.55;39.74
43480;BME280;29067;35.492;-97.520;2023-12-07T06:35:06;97518.78;;;5.65;40.30
43480;BME280;29067;35.492;-97.520;2023-12-07T06:37:34;97515.31;;;5.09;41.41
43480;BME280;29067;35.492;-97.520;2023-12-07T06:40:02;97514.33;;;5.35;41.03
43480;BME280;29067;35.492;-97.520;2023-12-07T06:42:30;97504.39;;;7.11;39.50
43480;BME280;29067;35.492;-97.520;2023-12-07T06:44:58;97503.45;;;6.46;39.95
43480;BME280;29067;35.492;-97.520;2023-12-07T06:47:25;97508.59;;;5.69;41.11
43480;BME280;29067;35.492;-97.520;2023-12-07T06:49:54;97510.62;;;4.97;41.54
43480;BME280;29067;35.492;-97.520;2023-12-07T06:52:21;97504.50;;;5.83;40.86
43480;BME280;29067;35.492;-97.520;2023-12-07T06:54:49;97499.21;;;6.40;40.28
43480;BME280;29067;35.492;-97.520;2023-12-07T06:57:17;97494.19;;;6.98;39.43
43480;BME280;29067;35.492;-97.520;2023-12-07T06:59:45;97489.36;;;7.62;39.15
43480;BME280;29067;35.492;-97.520;2023-12-07T07:02:13;97485.02;;;6.33;39.48
43480;BME280;29067;35.492;-97.520;2023-12-07T07:04:41;97480.89;;;6.75;39.72
43480;BME280;29067;35.492;-97.520;2023-12-07T07:07:08;97480.59;;;6.20;40.74
43480;BME280;29067;35.492;-97.520;2023-12-07T07:09:36;97475.65;;;6.23;40.54
43480;BME280;29067;35.492;-97.520;2023-12-07T07:12:05;97473.66;;;5.85;40.96
43480;BME280;29067;35.492;-97.520;2023-12-07T07:14:33;97474.69;;;5.35;41.44
43480;BME280;29067;35.492;-97.520;2023-12-07T07:17:01;97467.97;;;6.47;40.53
43480;BME280;29067;35.492;-97.520;2023-12-07T07:19:29;97468.23;;;5.56;41.18
43480;BME280;29067;35.492;-97.520;2023-12-07T07:21:57;97462.33;;;6.50;40.94
43480;BME280;29067;35.492;-97.520;2023-12-07T07:24:25;97464.27;;;6.61;39.90
43480;BME280;29067;35.492;-97.520;2023-12-07T07:26:52;97457.18;;;6.31;40.48
43480;BME280;29067;35.492;-97.520;2023-12-07T07:29:20;97460.25;;;5.24;42.42
43480;BME280;29067;35.492;-97.520;2023-12-07T07:31:48;97459.24;;;5.65;41.84
43480;BME280;29067;35.492;-97.520;2023-12-07T07:34:16;97457.15;;;5.49;42.03
43480;BME280;29067;35.492;-97.520;2023-12-07T07:36:44;97448.80;;;6.47;41.27
43480;BME280;29067;35.492;-97.520;2023-12-07T07:39:12;97450.80;;;5.64;42.06
43480;BME280;29067;35.492;-97.520;2023-12-07T07:41:40;97446.03;;;4.61;43.05
43480;BME280;29067;35.492;-97.520;2023-12-07T07:44:08;97452.65;;;5.18;42.71
43480;BME280;29067;35.492;-97.520;2023-12-07T07:46:36;97448.81;;;4.70;43.52
43480;BME280;29067;35.492;-97.520;2023-12-07T07:49:03;97438.46;;;5.51;43.15
43480;BME280;29067;35.492;-97.520;2023-12-07T07:51:31;97432.23;;;5.69;42.81
43480;BME280;29067;35.492;-97.520;2023-12-07T07:53:59;97428.45;;;6.19;42.34
43480;BME280;29067;35.492;-97.520;2023-12-07T07:56:27;97429.96;;;4.81;43.68
43480;BME280;29067;35.492;-97.520;2023-12-07T07:58:55;97429.38;;;4.96;43.05
43480;BME280;29067;35.492;-97.520;2023-12-07T08:01:23;97425.70;;;6.15;42.47
43480;BME280;29067;35.492;-97.520;2023-12-07T08:03:51;97422.16;;;5.67;42.52
43480;BME280;29067;35.492;-97.520;2023-12-07T08:06:19;97417.98;;;6.36;41.96
43480;BME280;29067;35.492;-97.520;2023-12-07T08:08:47;97421.22;;;6.56;42.40
43480;BME280;29067;35.492;-97.520;2023-12-07T08:11:15;97416.99;;;5.76;42.37
43480;BME280;29067;35.492;-97.520;2023-12-07T08:13:43;97416.74;;;6.18;42.16
43480;BME280;29067;35.492;-97.520;2023-12-07T08:16:11;97411.99;;;6.16;42.12
43480;BME280;29067;35.492;-97.520;2023-12-07T08:18:39;97407.70;;;7.09;40.80
43480;BME280;29067;35.492;-97.520;2023-12-07T08:21:07;97411.13;;;6.25;41.55
43480;BME280;29067;35.492;-97.520;2023-12-07T08:23:35;97412.53;;;6.64;41.39
43480;BME280;29067;35.492;-97.520;2023-12-07T08:26:03;97408.60;;;6.01;42.54
43480;BME280;29067;35.492;-97.520;2023-12-07T08:28:31;97410.57;;;5.87;42.85
43480;BME280;29067;35.492;-97.520;2023-12-07T08:30:58;97411.65;;;4.16;44.03
43480;BME280;29067;35.492;-97.520;2023-12-07T08:33:26;97397.94;;;6.08;42.31
43480;BME280;29067;35.492;-97.520;2023-12-07T08:35:54;97393.76;;;6.16;42.06
43480;BME280;29067;35.492;-97.520;2023-12-07T08:38:22;97394.25;;;5.18;43.43
43480;BME280;29067;35.492;-97.520;2023-12-07T08:40:50;97388.84;;;6.32;42.53
43480;BME280;29067;35.492;-97.520;2023-12-07T08:43:21;97389.18;;;6.13;42.34
43480;BME280;29067;35.492;-97.520;2023-12-07T08:45:49;97390.35;;;5.06;43.86
43480;BME280;29067;35.492;-97.520;2023-12-07T08:48:19;97391.44;;;5.00;43.92
43480;BME280;29067;35.492;-97.520;2023-12-07T08:50:47;97392.52;;;5.73;43.32
43480;BME280;29067;35.492;-97.520;2023-12-07T08:53:15;97391.03;;;5.58;43.25
43480;BME280;29067;35.492;-97.520;2023-12-07T08:55:43;97393.12;;;4.25;45.01
43480;BME280;29067;35.492;-97.520;2023-12-07T08:58:11;97391.58;;;5.02;44.14
43480;BME280;29067;35.492;-97.520;2023-12-07T09:00:39;97385.13;;;6.47;43.50
43480;BME280;29067;35.492;-97.520;2023-12-07T09:03:06;97381.08;;;6.12;42.74
43480;BME280;29067;35.492;-97.520;2023-12-07T09:05:34;97384.04;;;4.98;44.39
43480;BME280;29067;35.492;-97.520;2023-12-07T09:08:02;97376.58;;;5.32;44.21
43480;BME280;29067;35.492;-97.520;2023-12-07T09:10:30;97370.71;;;6.79;42.49
43480;BME280;29067;35.492;-97.520;2023-12-07T09:12:58;97366.58;;;6.68;42.26
43480;BME280;29067;35.492;-97.520;2023-12-07T09:15:26;97370.42;;;6.53;42.96
43480;BME280;29067;35.492;-97.520;2023-12-07T09:17:54;97364.59;;;5.85;43.22
43480;BME280;29067;35.492;-97.520;2023-12-07T09:20:23;97367.60;;;6.43;43.08
43480;BME280;29067;35.492;-97.520;2023-12-07T09:22:50;97357.02;;;6.86;42.40
43480;BME280;29067;35.492;-97.520;2023-12-07T09:25:18;97360.92;;;5.99;43.40
43480;BME280;29067;35.492;-97.520;2023-12-07T09:27:46;97349.78;;;5.62;44.21
43480;BME280;29067;35.492;-97.520;2023-12-07T09:30:14;97338.49;;;6.29;43.17
43480;BME280;29067;35.492;-97.520;2023-12-07T09:32:43;97338.22;;;5.68;43.62
43480;BME280;29067;35.492;-97.520;2023-12-07T09:35:11;97333.91;;;5.15;44.27
43480;BME280;29067;35.492;-97.520;2023-12-07T09:37:39;97329.85;;;5.56;44.24
43480;BME280;29067;35.492;-97.520;2023-12-07T09:40:07;97324.10;;;5.90;43.68
43480;BME280;29067;35.492;-97.520;2023-12-07T09:42:35;97318.45;;;5.69;43.74
43480;BME280;29067;35.492;-97.520;2023-12-07T09:45:04;97315.62;;;5.85;43.83
43480;BME280;29067;35.492;-97.520;2023-12-07T09:47:33;97310.01;;;5.28;44.49
43480;BME280;29067;35.492;-97.520;2023-12-07T09:50:02;97306.53;;;5.37;45.09
43480;BME280;29067;35.492;-97.520;2023-12-07T09:52:30;97300.16;;;6.41;44.05
43480;BME280;29067;35.492;-97.520;2023-12-07T09:54:59;97302.12;;;6.56;44.06
43480;BME280;29067;35.492;-97.520;2023-12-07T09:57:29;97301.93;;;5.28;46.04
43480;BME280;29067;35.492;-97.520;2023-12-07T09:59:57;97293.71;;;6.61;43.59
43480;BME280;29067;35.492;-97.520;2023-12-07T10:02:25;97287.51;;;6.63;43.97
43480;BME280;29067;35.492;-97.520;2023-12-07T10:05:04;97295.45;;;5.92;44.37
43480;BME280;29067;35.492;-97.520;2023-12-07T10:07:34;97288.77;;;5.38;45.11
43480;BME280;29067;35.492;-97.520;2023-12-07T10:10:03;97286.93;;;6.55;44.94
43480;BME280;29067;35.492;-97.520;2023-12-07T10:12:32;97268.23;;;6.96;43.57
43480;BME280;29067;35.492;-97.520;2023-12-07T10:15:00;97269.91;;;6.40;44.12
43480;BME280;29067;35.492;-97.520;2023-12-07T10:17:46;97270.71;;;5.45;45.31
43480;BME280;29067;35.492;-97.520;2023-12-07T10:20:16;97269.93;;;4.61;46.15
43480;BME280;29067;35.492;-97.520;2023-12-07T10:22:45;97263.00;;;5.69;44.90
43480;BME280;29067;35.492;-97.520;2023-12-07T10:25:14;97259.74;;;6.42;43.99
43480;BME280;29067;35.492;-97.520;2023-12-07T10:27:42;97250.25;;;6.66;43.55
43480;BME280;29067;35.492;-97.520;2023-12-07T10:30:11;97244.79;;;7.40;42.72
43480;BME280;29067;35.492;-97.520;2023-12-07T10:32:39;97240.13;;;6.83;42.33
43480;BME280;29067;35.492;-97.520;2023-12-07T10:35:08;97233.44;;;6.23;43.35
43480;BME280;29067;35.492;-97.520;2023-12-07T10:37:36;97226.46;;;5.97;44.35
43480;BME280;29067;35.492;-97.520;2023-12-07T10:40:06;97226.09;;;5.95;44.80
43480;BME280;29067;35.492;-97.520;2023-12-07T10:42:35;97215.59;;;6.72;44.11
43480;BME280;29067;35.492;-97.520;2023-12-07T10:45:05;97220.36;;;6.69;43.96
43480;BME280;29067;35.492;-97.520;2023-12-07T10:47:37;97216.39;;;5.81;45.36
43480;BME280;29067;35.492;-97.520;2023-12-07T10:50:08;97215.58;;;4.27;47.10
43480;BME280;29067;35.492;-97.520;2023-12-07T10:52:37;97207.67;;;5.88;46.28
43480;BME280;29067;35.492;-97.520;2023-12-07T10:55:10;97206.11;;;5.17;46.45
43480;BME280;29067;35.492;-97.520;2023-12-07T10:57:41;97201.00;;;5.98;46.45
43480;BME280;29067;35.492;-97.520;2023-12-07T11:00:12;97191.19;;;5.92;45.60
43480;BME280;29067;35.492;-97.520;2023-12-07T11:02:40;97190.85;;;4.67;46.85
43480;BME280;29067;35.492;-97.520;2023-12-07T11:05:10;97178.16;;;6.23;45.62
43480;BME280;29067;35.492;-97.520;2023-12-07T11:07:45;97176.36;;;5.24;46.28
43480;BME280;29067;35.492;-97.520;2023-12-07T11:10:21;97172.10;;;6.20;45.81
43480;BME280;29067;35.492;-97.520;2023-12-07T11:12:56;97176.76;;;5.44;47.59
43480;BME280;29067;35.492;-97.520;2023-12-07T11:15:25;97169.47;;;6.51;46.41
43480;BME280;29067;35.492;-97.520;2023-12-07T11:17:55;97166.10;;;5.47;47.06
43480;BME280;29067;35.492;-97.520;2023-12-07T11:20:39;97168.14;;;4.93;48.52
43480;BME280;29067;35.492;-97.520;2023-12-07T11:23:08;97160.22;;;5.11;49.18
43480;BME280;29067;35.492;-97.520;2023-12-07T11:25:36;97154.35;;;5.30;48.41
43480;BME280;29067;35.492;-97.520;2023-12-07T11:28:05;97153.77;;;5.78;47.85
43480;BME280;29067;35.492;-97.520;2023-12-07T11:30:35;97155.23;;;4.51;49.59
43480;BME280;29067;35.492;-97.520;2023-12-07T11:33:05;97147.98;;;5.61;48.21
43480;BME280;29067;35.492;-97.520;2023-12-07T11:35:33;97148.03;;;5.10;48.87
43480;BME280;29067;35.492;-97.520;2023-12-07T11:38:30;97148.24;;;4.86;49.67
43480;BME280;29067;35.492;-97.520;2023-12-07T11:40:59;97149.68;;;5.76;47.90
43480;BME280;29067;35.492;-97.520;2023-12-07T11:43:42;97138.98;;;6.51;46.86
43480;BME280;29067;35.492;-97.520;2023-12-07T11:46:13;97142.22;;;5.52;48.50
43480;BME280;29067;35.492;-97.520;2023-12-07T11:48:47;97132.61;;;5.81;47.92
43480;BME280;29067;35.492;-97.520;2023-12-07T11:51:16;97140.63;;;6.14;48.25
43480;BME280;29067;35.492;-97.520;2023-12-07T11:53:44;97134.67;;;6.17;47.78
43480;BME280;29067;35.492;-97.520;2023-12-07T11:56:12;97139.05;;;5.43;47.98
43480;BME280;29067;35.492;-97.520;2023-12-07T11:58:40;97138.15;;;5.51;48.56
43480;BME280;29067;35.492;-97.520;2023-12-07T12:03:01;97127.90;;;5.42;48.44
43480;BME280;29067;35.492;-97.520;2023-12-07T12:05:29;97130.23;;;5.86;48.10
43480;BME280;29067;35.492;-97.520;2023-12-07T12:07:57;97126.08;;;4.82;49.74
43480;BME280;29067;35.492;-97.520;2023-12-07T12:10:25;97123.07;;;5.29;49.03
43480;BME280;29067;35.492;-97.520;2023-12-07T12:12:54;97120.40;;;4.87;49.62
43480;BME280;29067;35.492;-97.520;2023-12-07T12:15:23;97114.92;;;4.01;51.44
43480;BME280;29067;35.492;-97.520;2023-12-07T12:17:50;97113.90;;;5.63;48.88
43480;BME280;29067;35.492;-97.520;2023-12-07T12:20:19;97118.11;;;5.04;50.44
43480;BME280;29067;35.492;-97.520;2023-12-07T12:22:47;97116.19;;;4.27;51.56
43480;BME280;29067;35.492;-97.520;2023-12-07T12:25:15;97115.63;;;4.61;51.38
43480;BME280;29067;35.492;-97.520;2023-12-07T12:27:43;97109.73;;;6.63;48.65
43480;BME280;29067;35.492;-97.520;2023-12-07T12:30:12;97106.26;;;4.97;49.61
43480;BME280;29067;35.492;-97.520;2023-12-07T12:32:44;97100.52;;;5.96;48.87
43480;BME280;29067;35.492;-97.520;2023-12-07T12:35:12;97101.00;;;5.37;49.61
43480;BME280;29067;35.492;-97.520;2023-12-07T12:37:41;97106.08;;;5.75;49.38
43480;BME280;29067;35.492;-97.520;2023-12-07T12:40:11;97095.02;;;5.41;50.47
43480;BME280;29067;35.492;-97.520;2023-12-07T12:42:39;97096.86;;;5.40;50.55
43480;BME280;29067;35.492;-97.520;2023-12-07T12:45:09;97104.70;;;4.39;51.79
43480;BME280;29067;35.492;-97.520;2023-12-07T12:47:37;97094.17;;;5.43;50.60
43480;BME280;29067;35.492;-97.520;2023-12-07T12:50:06;97098.01;;;5.27;50.83
43480;BME280;29067;35.492;-97.520;2023-12-07T12:52:34;97093.81;;;5.26;50.17
43480;BME280;29067;35.492;-97.520;2023-12-07T12:55:02;97088.68;;;5.17;50.56
43480;BME280;29067;35.492;-97.520;2023-12-07T12:57:34;97082.76;;;5.92;49.85